Home   Weather   Italy   Reggio Calabria   Past weeks
Flag for Italy

Past Weather in Reggio Calabria, Italy — Yesterday and Last 2 Weeks

Currently: 77 °F. Clear. (Weather station: Reggio Calabria, Italy). See more current weather

Past Weather in Reggio Calabria — Graph

°F

Reggio Calabria Temperature Yesterday

Maximum temperature yesterday: 88 °F (at 12:20 pm)
Minimum temperature yesterday: 73 °F (at 3:20 am)
Average temperature yesterday: 79 °F

High & Low Weather Summary for the Past Weeks

 TemperatureHumidityPressure
High90 °F (Jun 16, 2:50 pm)100% (Jun 12, 3:20 am)30.09 "Hg (Jun 12, 3:20 am)
Low61 °F (Jun 15, 4:20 am)13% (Jun 15, 4:20 pm)29.80 "Hg (Jun 12, 5:50 am)
Average76 °F63%29.96 "Hg
* Reported Jun 3 7:20 pm — Jun 18 7:50 pm, Reggio Calabria. Weather by CustomWeather, © 2024

Note: Actual official high and low records may vary slightly from our data, if they occured in-between our weather recording intervals... More about our weather records

Reggio Calabria Weather History for the Previous 24 Hours

Scroll right to see more
 ConditionsComfort  
Time TempWeatherWind HumidityBarometerVisibility
7:50 pm
Tue, Jun 18
77 °FClear.3 mph65%30.07 "HgN/A
7:20 pm77 °FClear.5 mph61%30.07 "HgN/A
6:50 pm81 °FClear.7 mph54%30.04 "HgN/A
6:20 pm79 °FClear.2 mph65%30.04 "HgN/A
5:50 pm81 °FClear.8 mph62%30.04 "HgN/A
5:20 pm81 °FClear.10 mph66%30.04 "HgN/A
4:50 pm82 °FClear.12 mph62%30.07 "HgN/A
3:50 pm82 °FClear.13 mph66%30.07 "HgN/A
2:20 pm84 °FClear.12 mph55%30.07 "HgN/A
12:50 pm88 °FClear.8 mph29%30.07 "HgN/A
12:20 pm88 °FClear.7 mph27%30.07 "HgN/A
11:20 am90 °FClear.7 mph27%30.07 "HgN/A
10:20 am86 °FClear.8 mph40%30.07 "HgN/A
9:20 am82 °FClear.8 mph55%30.07 "HgN/A
8:50 am82 °FClear.8 mph42%30.07 "HgN/A
8:20 am81 °FClear.8 mph45%30.07 "HgN/A
7:20 am79 °FClear.1 mph45%30.07 "HgN/A
6:50 am73 °FClear.3 mph53%30.04 "HgN/A
6:20 am72 °FClear.5 mph57%30.04 "HgN/A
5:50 am70 °FClear.5 mph57%30.04 "HgN/A
5:20 am70 °FClear.6 mph57%30.01 "HgN/A
4:50 am70 °FClear.6 mph57%30.01 "HgN/A
4:20 am70 °FClear.7 mph57%30.01 "HgN/A
3:20 am72 °FClear.8 mph83%30.01 "HgN/A
2:50 am72 °FClear.10 mph88%30.01 "HgN/A
2:20 am73 °FClear.12 mph83%30.01 "HgN/A
1:50 am73 °FClear.12 mph83%30.04 "HgN/A
1:20 am73 °FClear.14 mph78%30.04 "HgN/A
12:50 am73 °FClear.10 mph78%30.04 "HgN/A
11:50 pm
Mon, Jun 17
73 °FClear.10 mph78%30.04 "HgN/A
11:20 pm73 °FClear.10 mph83%30.04 "HgN/A
10:50 pm73 °FClear.10 mph83%30.04 "HgN/A
10:20 pm73 °FClear.13 mph83%30.04 "HgN/A
9:50 pm75 °FClear.14 mph78%30.04 "HgN/A
9:20 pm75 °FClear.15 mph78%30.04 "HgN/A
Weather by CustomWeather, © 2024

See weather overview